Time;durP1;ratioP1;P1;durP2;ratioP2;P2;SDS_P1;SDS_P2;PMS_P1;PMS_P2;Temp;Humidity;BMP_temperature;BMP_pressure;BME280_temperature;BME280_humidity;BME280_pressure;Samples;Min_cycle;Max_cycle;Signal;HPM_P1;HPM_P2
2023/04/25 00:02:00;;;;;;;5.07;4.57;;;;;;;;;;5012969;28;20213;-78
2023/04/25 00:04:27;;;;;;;5.23;4.43;;;;;;;;;;5034936;28;20205;-78
2023/04/25 00:06:53;;;;;;;3.97;3.57;;;;;;;;;;5013350;28;20183;-78
2023/04/25 00:09:18;;;;;;;5.00;3.97;;;;;;;;;;5014899;28;20178;-78
2023/04/25 00:11:44;;;;;;;6.97;4.80;;;;;;;;;;5014704;28;20190;-78
2023/04/25 00:14:09;;;;;;;6.30;4.73;;;;;;;;;;5015116;28;20203;-78
2023/04/25 00:16:35;;;;;;;5.03;4.53;;;;;;;;;;5008727;28;20183;-78
2023/04/25 00:19:01;;;;;;;10.23;5.10;;;;;;;;;;5017266;28;20230;-78
2023/04/25 00:21:28;;;;;;;6.60;4.70;;;;;;;;;;5022304;28;20202;-78
2023/04/25 00:23:53;;;;;;;5.90;4.87;;;;;;;;;;5015947;28;20229;-78
2023/04/25 00:26:18;;;;;;;5.43;4.93;;;;;;;;;;5019245;28;20183;-78
2023/04/25 00:28:44;;;;;;;7.07;5.03;;;;;;;;;;5028257;28;20178;-78
2023/04/25 00:31:09;;;;;;;5.60;5.00;;;;;;;;;;5018706;28;20232;-78
2023/04/25 00:33:35;;;;;;;4.73;4.33;;;;;;;;;;5012723;28;20181;-78
2023/04/25 00:36:00;;;;;;;3.50;3.20;;;;;;;;;;5030887;28;20214;-78
2023/04/25 00:38:25;;;;;;;3.87;3.47;;;;;;;;;;5031482;28;20203;-78
2023/04/25 00:40:50;;;;;;;3.60;3.30;;;;;;;;;;5021996;28;20183;-78
2023/04/25 00:43:16;;;;;;;3.77;3.47;;;;;;;;;;5036809;28;20177;-78
2023/04/25 00:45:42;;;;;;;4.63;3.47;;;;;;;;;;5034863;28;20238;-78
2023/04/25 00:48:08;;;;;;;3.93;3.53;;;;;;;;;;5027340;28;20172;-78
2023/04/25 00:50:33;;;;;;;3.77;3.40;;;;;;;;;;5013798;28;20242;-78
2023/04/25 00:52:58;;;;;;;3.83;3.47;;;;;;;;;;5015817;28;20192;-78
2023/04/25 00:55:24;;;;;;;4.17;3.77;;;;;;;;;;5020557;28;20262;-78
2023/04/25 00:57:49;;;;;;;4.37;3.43;;;;;;;;;;5021091;28;20205;-78
2023/04/25 01:00:15;;;;;;;4.10;3.70;;;;;;;;;;5010745;28;20187;-78
2023/04/25 01:02:42;;;;;;;4.50;3.40;;;;;;;;;;5017770;28;20259;-78
2023/04/25 01:05:07;;;;;;;4.50;3.73;;;;;;;;;;5025489;28;20205;-78
2023/04/25 01:07:33;;;;;;;4.83;4.00;;;;;;;;;;5007013;28;20182;-78
2023/04/25 01:09:58;;;;;;;4.30;3.90;;;;;;;;;;5026898;28;20181;-78
2023/04/25 01:12:23;;;;;;;4.53;3.67;;;;;;;;;;5017812;28;20185;-78
2023/04/25 01:14:49;;;;;;;4.60;4.17;;;;;;;;;;5018007;28;20270;-78
2023/04/25 01:17:14;;;;;;;5.03;4.53;;;;;;;;;;5024681;28;20294;-78
2023/04/25 01:19:40;;;;;;;6.30;4.07;;;;;;;;;;5023011;28;20238;-78
2023/04/25 01:22:05;;;;;;;4.87;4.37;;;;;;;;;;4992707;28;20185;-78
2023/04/25 01:24:33;;;;;;;4.67;4.27;;;;;;;;;;5007564;28;20204;-78
2023/04/25 01:27:00;;;;;;;4.30;3.90;;;;;;;;;;4993483;28;20277;-78
2023/04/25 01:29:25;;;;;;;5.03;4.33;;;;;;;;;;4995386;28;20189;-78
2023/04/25 01:31:51;;;;;;;6.20;4.93;;;;;;;;;;5010309;28;20183;-78
2023/04/25 01:34:16;;;;;;;4.70;4.27;;;;;;;;;;5010458;28;20265;-78
2023/04/25 01:36:42;;;;;;;4.80;3.87;;;;;;;;;;5012095;28;20330;-78
2023/04/25 01:39:07;;;;;;;5.30;4.33;;;;;;;;;;4989883;28;20282;-78
2023/04/25 01:41:34;;;;;;;5.00;4.10;;;;;;;;;;4991717;28;20190;-78
2023/04/25 01:43:59;;;;;;;7.93;4.50;;;;;;;;;;4998461;28;20209;-78
2023/04/25 01:46:25;;;;;;;5.07;4.43;;;;;;;;;;4996907;28;20182;-78
2023/04/25 01:48:50;;;;;;;4.73;4.33;;;;;;;;;;4998864;28;20183;-78
2023/04/25 01:51:15;;;;;;;4.30;3.90;;;;;;;;;;4991255;28;20179;-78
2023/04/25 01:53:41;;;;;;;5.73;4.47;;;;;;;;;;5003024;28;20175;-78
2023/04/25 01:56:06;;;;;;;5.97;5.07;;;;;;;;;;4999516;28;20183;-78
2023/04/25 01:58:31;;;;;;;5.33;4.83;;;;;;;;;;5026275;28;20185;-78
2023/04/25 02:00:57;;;;;;;6.73;5.30;;;;;;;;;;4994513;28;20183;-78
2023/04/25 02:03:22;;;;;;;5.43;4.83;;;;;;;;;;4997591;28;20200;-78
2023/04/25 02:05:47;;;;;;;6.90;4.83;;;;;;;;;;4995046;28;20210;-78
2023/04/25 02:08:13;;;;;;;5.27;4.87;;;;;;;;;;5006011;28;20179;-78
2023/04/25 02:10:38;;;;;;;7.70;5.47;;;;;;;;;;4997810;28;20185;-78
2023/04/25 02:13:05;;;;;;;5.73;4.93;;;;;;;;;;4995950;28;20271;-78
2023/04/25 02:15:30;;;;;;;5.43;4.87;;;;;;;;;;5002052;28;20228;-80
2023/04/25 02:17:55;;;;;;;5.10;4.60;;;;;;;;;;4995470;28;20210;-77
2023/04/25 02:20:21;;;;;;;5.10;4.67;;;;;;;;;;5016326;28;20233;-77
2023/04/25 02:22:47;;;;;;;6.53;4.97;;;;;;;;;;5014361;28;20185;-77
2023/04/25 02:25:12;;;;;;;6.27;5.37;;;;;;;;;;5030191;28;20208;-77
2023/04/25 02:27:38;;;;;;;5.17;4.60;;;;;;;;;;5030093;28;20178;-77
2023/04/25 02:30:04;;;;;;;5.43;4.93;;;;;;;;;;5015544;28;20241;-77
2023/04/25 02:32:29;;;;;;;8.50;5.10;;;;;;;;;;5012442;28;20171;-77
2023/04/25 02:34:55;;;;;;;5.87;4.87;;;;;;;;;;5012767;28;20184;-77
2023/04/25 02:37:20;;;;;;;5.13;4.73;;;;;;;;;;5026133;28;20181;-77
2023/04/25 02:39:45;;;;;;;6.63;5.43;;;;;;;;;;5010924;28;20201;-77
2023/04/25 02:42:10;;;;;;;7.67;5.70;;;;;;;;;;5014648;28;20187;-77
2023/04/25 02:44:36;;;;;;;5.57;4.90;;;;;;;;;;5012808;28;20214;-77
2023/04/25 02:47:01;;;;;;;9.27;5.63;;;;;;;;;;5010673;28;20259;-77
2023/04/25 02:49:26;;;;;;;6.70;6.10;;;;;;;;;;5013111;28;20222;-77
2023/04/25 02:51:51;;;;;;;7.30;6.40;;;;;;;;;;5027595;28;20195;-77
2023/04/25 02:54:16;;;;;;;7.83;6.10;;;;;;;;;;5012088;28;20189;-79
2023/04/25 02:56:42;;;;;;;8.17;6.57;;;;;;;;;;5008360;28;20265;-80
2023/04/25 02:59:07;;;;;;;8.47;7.33;;;;;;;;;;5013005;28;20257;-80
2023/04/25 03:01:32;;;;;;;8.20;7.00;;;;;;;;;;5007393;28;20220;-80
2023/04/25 03:03:57;;;;;;;8.13;7.00;;;;;;;;;;5009860;28;20269;-80
2023/04/25 03:06:23;;;;;;;8.07;7.27;;;;;;;;;;5017790;28;20169;-80
2023/04/25 03:08:48;;;;;;;7.83;7.13;;;;;;;;;;5033113;28;20205;-80
2023/04/25 03:11:13;;;;;;;8.13;7.33;;;;;;;;;;5028339;28;20188;-80
2023/04/25 03:13:38;;;;;;;7.03;6.33;;;;;;;;;;5017697;28;20200;-80
2023/04/25 03:16:04;;;;;;;10.50;7.40;;;;;;;;;;5016059;28;20172;-79
2023/04/25 03:18:29;;;;;;;8.10;7.30;;;;;;;;;;5015604;28;20175;-80
2023/04/25 03:20:54;;;;;;;7.97;6.87;;;;;;;;;;5027548;28;20414;-80
2023/04/25 03:23:19;;;;;;;8.07;7.03;;;;;;;;;;5039385;28;20182;-80
2023/04/25 03:25:45;;;;;;;7.70;7.00;;;;;;;;;;5031621;28;20200;-79
2023/04/25 03:28:10;;;;;;;9.40;7.90;;;;;;;;;;5017956;28;20182;-80
2023/04/25 03:30:35;;;;;;;8.53;7.40;;;;;;;;;;5019392;28;20210;-80
2023/04/25 03:33:01;;;;;;;8.20;7.30;;;;;;;;;;5027411;28;20205;-80
2023/04/25 03:35:26;;;;;;;7.97;7.17;;;;;;;;;;5036225;28;20183;-80
2023/04/25 03:37:51;;;;;;;9.73;7.67;;;;;;;;;;5034708;28;20244;-80
2023/04/25 03:40:16;;;;;;;7.73;6.67;;;;;;;;;;5011662;28;20193;-80
2023/04/25 03:42:42;;;;;;;7.00;6.37;;;;;;;;;;5028940;28;20179;-80
2023/04/25 03:45:07;;;;;;;7.30;6.53;;;;;;;;;;5013692;28;20212;-80
2023/04/25 03:47:32;;;;;;;8.43;6.43;;;;;;;;;;5013002;28;20185;-80
2023/04/25 03:49:57;;;;;;;8.07;7.27;;;;;;;;;;5011024;28;20174;-80
2023/04/25 03:52:23;;;;;;;9.57;7.53;;;;;;;;;;5012928;28;20252;-80
2023/04/25 03:54:48;;;;;;;7.97;7.17;;;;;;;;;;5015078;28;20356;-80
2023/04/25 03:57:14;;;;;;;9.43;7.03;;;;;;;;;;5036782;28;20203;-80
2023/04/25 03:59:39;;;;;;;7.40;6.70;;;;;;;;;;5019981;28;20264;-79
2023/04/25 04:02:04;;;;;;;7.57;6.43;;;;;;;;;;5016521;28;20296;-80
2023/04/25 04:04:32;;;;;;;9.53;6.60;;;;;;;;;;5020705;28;20230;-80
2023/04/25 04:06:58;;;;;;;8.80;7.90;;;;;;;;;;5026722;28;20267;-80
2023/04/25 04:09:23;;;;;;;8.87;7.27;;;;;;;;;;5013678;28;20261;-80
2023/04/25 04:11:48;;;;;;;8.00;6.90;;;;;;;;;;5017625;28;20185;-80
2023/04/25 04:14:13;;;;;;;8.63;7.30;;;;;;;;;;5021529;28;20189;-80
2023/04/25 04:16:39;;;;;;;11.53;8.63;;;;;;;;;;5016542;28;20284;-81
2023/04/25 04:19:04;;;;;;;8.67;7.73;;;;;;;;;;5018112;28;20274;-80
2023/04/25 04:21:29;;;;;;;15.13;9.20;;;;;;;;;;5015060;28;20178;-79
2023/04/25 04:23:55;;;;;;;12.03;8.67;;;;;;;;;;5024394;28;20180;-80
2023/04/25 04:26:23;;;;;;;11.10;7.03;;;;;;;;;;5028392;28;20507;-80
2023/04/25 04:28:48;;;;;;;10.70;9.33;;;;;;;;;;5012980;28;20275;-79
2023/04/25 04:31:16;;;;;;;7.17;6.47;;;;;;;;;;5011202;28;20198;-80
2023/04/25 04:33:42;;;;;;;7.30;6.23;;;;;;;;;;5014515;28;20189;-80
2023/04/25 04:36:07;;;;;;;7.13;6.03;;;;;;;;;;5014622;28;20172;-80
2023/04/25 04:38:32;;;;;;;7.17;5.40;;;;;;;;;;5011897;28;20176;-80
2023/04/25 04:40:58;;;;;;;7.43;5.90;;;;;;;;;;5012526;28;20179;-80
2023/04/25 04:43:23;;;;;;;6.90;6.20;;;;;;;;;;5012330;28;20175;-80
2023/04/25 04:45:49;;;;;;;5.63;4.90;;;;;;;;;;5011472;28;20239;-80
2023/04/25 04:48:15;;;;;;;6.73;5.20;;;;;;;;;;5017638;28;20174;-80
2023/04/25 04:50:40;;;;;;;7.30;6.23;;;;;;;;;;5019312;28;20237;-80
2023/04/25 04:53:06;;;;;;;7.17;6.10;;;;;;;;;;5022303;28;20182;-80
2023/04/25 04:55:31;;;;;;;8.57;5.80;;;;;;;;;;5016955;28;20183;-80
2023/04/25 04:57:56;;;;;;;6.43;5.47;;;;;;;;;;5011900;28;20196;-80
2023/04/25 05:00:21;;;;;;;7.50;5.73;;;;;;;;;;5019026;28;20189;-80
2023/04/25 05:02:47;;;;;;;5.60;4.80;;;;;;;;;;5014035;28;20200;-80
2023/04/25 05:05:12;;;;;;;6.23;5.20;;;;;;;;;;5021591;28;20294;-80
2023/04/25 05:07:37;;;;;;;6.30;5.60;;;;;;;;;;5016858;28;20182;-80
2023/04/25 05:10:03;;;;;;;5.67;4.97;;;;;;;;;;5018340;28;20283;-80
2023/04/25 05:12:28;;;;;;;6.50;5.53;;;;;;;;;;5013268;28;20182;-80
2023/04/25 05:14:53;;;;;;;8.33;6.30;;;;;;;;;;5016543;28;20181;-80
2023/04/25 05:17:18;;;;;;;8.40;5.60;;;;;;;;;;5014876;28;20178;-80
2023/04/25 05:19:44;;;;;;;6.40;5.80;;;;;;;;;;5004982;28;20241;-80
2023/04/25 05:22:10;;;;;;;9.07;6.53;;;;;;;;;;5006282;28;20194;-80
2023/04/25 05:24:35;;;;;;;7.10;5.20;;;;;;;;;;5005193;28;20233;-80
2023/04/25 05:27:00;;;;;;;9.77;5.60;;;;;;;;;;5008985;28;20183;-80
2023/04/25 05:29:26;;;;;;;5.67;4.87;;;;;;;;;;4990219;28;20179;-80
2023/04/25 05:31:51;;;;;;;7.17;6.47;;;;;;;;;;4993272;28;20232;-80
2023/04/25 05:34:16;;;;;;;7.80;7.00;;;;;;;;;;4990505;28;20189;-80
2023/04/25 05:36:42;;;;;;;6.93;6.23;;;;;;;;;;5004967;28;20188;-80
2023/04/25 05:39:08;;;;;;;7.83;6.57;;;;;;;;;;5003575;28;20186;-80
2023/04/25 05:41:33;;;;;;;7.00;5.00;;;;;;;;;;5006571;28;20199;-80
2023/04/25 05:43:59;;;;;;;7.07;5.00;;;;;;;;;;5007506;28;20219;-80
2023/04/25 05:46:24;;;;;;;5.83;5.20;;;;;;;;;;4989770;28;20225;-80
2023/04/25 05:48:50;;;;;;;5.17;4.53;;;;;;;;;;4991491;28;20262;-80
2023/04/25 05:51:16;;;;;;;4.57;4.17;;;;;;;;;;4991408;28;20305;-80
2023/04/25 05:53:41;;;;;;;4.83;3.43;;;;;;;;;;4993060;28;20206;-80
2023/04/25 05:56:06;;;;;;;4.37;3.97;;;;;;;;;;4991768;28;20183;-80
2023/04/25 05:58:31;;;;;;;5.27;4.00;;;;;;;;;;4987198;28;20190;-80
2023/04/25 06:00:57;;;;;;;3.37;3.07;;;;;;;;;;4999721;28;20257;-80
2023/04/25 06:03:22;;;;;;;4.20;3.53;;;;;;;;;;4992048;28;20202;-79
2023/04/25 06:05:47;;;;;;;7.33;6.13;;;;;;;;;;4990906;28;20238;-80
2023/04/25 06:08:12;;;;;;;4.87;4.37;;;;;;;;;;4991369;28;20186;-80
2023/04/25 06:10:38;;;;;;;5.90;5.20;;;;;;;;;;5011139;28;20184;-80
2023/04/25 06:13:04;;;;;;;5.40;4.07;;;;;;;;;;4998269;28;20190;-80
2023/04/25 06:15:29;;;;;;;4.53;4.13;;;;;;;;;;5017868;28;20393;-80
2023/04/25 06:17:55;;;;;;;6.37;5.30;;;;;;;;;;4995019;28;20295;-80
2023/04/25 06:20:22;;;;;;;5.80;5.20;;;;;;;;;;5004449;28;20230;-80
2023/04/25 06:22:48;;;;;;;4.80;4.30;;;;;;;;;;5014715;28;20173;-80
2023/04/25 06:25:13;;;;;;;4.60;4.20;;;;;;;;;;5026691;28;20262;-80
2023/04/25 06:27:39;;;;;;;5.53;5.03;;;;;;;;;;5021539;28;20206;-80
2023/04/25 06:30:05;;;;;;;7.43;5.30;;;;;;;;;;5014858;28;20207;-80
2023/04/25 06:32:30;;;;;;;7.13;6.43;;;;;;;;;;5005048;28;20193;-80
2023/04/25 06:34:56;;;;;;;6.37;5.73;;;;;;;;;;5001944;28;20182;-80
2023/04/25 06:37:21;;;;;;;6.93;5.90;;;;;;;;;;5013455;28;20465;-80
2023/04/25 06:39:46;;;;;;;7.53;6.23;;;;;;;;;;5027274;28;20277;-80
2023/04/25 06:42:12;;;;;;;6.13;5.03;;;;;;;;;;5016831;28;20300;-75
2023/04/25 06:44:37;;;;;;;7.90;7.13;;;;;;;;;;5023932;28;20245;-75
2023/04/25 06:47:02;;;;;;;8.30;7.53;;;;;;;;;;5015539;28;20201;-75
2023/04/25 06:49:27;;;;;;;6.23;5.20;;;;;;;;;;5024990;28;20167;-75
2023/04/25 06:51:52;;;;;;;6.50;4.73;;;;;;;;;;5016902;28;20174;-75
2023/04/25 06:54:18;;;;;;;6.30;5.40;;;;;;;;;;5010357;28;20192;-77
2023/04/25 06:56:43;;;;;;;6.10;5.20;;;;;;;;;;5022706;28;20189;-75
2023/04/25 06:59:09;;;;;;;5.33;4.23;;;;;;;;;;5024532;28;20196;-77
2023/04/25 07:01:35;;;;;;;4.90;3.90;;;;;;;;;;5016004;28;20188;-77
2023/04/25 07:04:00;;;;;;;4.47;3.60;;;;;;;;;;5009584;28;20315;-77
2023/04/25 07:06:26;;;;;;;5.90;5.13;;;;;;;;;;5016313;28;20265;-77
2023/04/25 07:08:52;;;;;;;5.47;4.70;;;;;;;;;;5015212;28;20186;-75
2023/04/25 07:11:17;;;;;;;9.00;8.17;;;;;;;;;;5016691;28;20289;-77
2023/04/25 07:13:42;;;;;;;28.57;26.07;;;;;;;;;;5020756;28;20176;-77
2023/04/25 07:16:07;;;;;;;14.77;12.63;;;;;;;;;;5034969;28;20185;-77
2023/04/25 07:18:32;;;;;;;13.83;12.63;;;;;;;;;;5015022;28;20177;-77
2023/04/25 07:20:58;;;;;;;9.57;8.60;;;;;;;;;;5009703;28;20252;-77
2023/04/25 07:23:23;;;;;;;5.87;5.37;;;;;;;;;;5033311;28;20233;-75
2023/04/25 07:25:48;;;;;;;41.37;37.87;;;;;;;;;;5029989;28;20250;-77
2023/04/25 07:28:13;;;;;;;11.07;9.97;;;;;;;;;;5031180;28;20178;-77
2023/04/25 07:30:39;;;;;;;11.80;10.83;;;;;;;;;;5031770;28;20260;-77
2023/04/25 07:33:04;;;;;;;11.57;10.47;;;;;;;;;;5016967;28;20265;-77
2023/04/25 07:35:29;;;;;;;7.97;6.53;;;;;;;;;;5008244;28;20178;-77
2023/04/25 07:37:55;;;;;;;6.77;4.90;;;;;;;;;;5017921;28;20208;-77
2023/04/25 07:40:21;;;;;;;10.33;9.33;;;;;;;;;;5041141;28;20209;-77
2023/04/25 07:42:46;;;;;;;5.67;5.07;;;;;;;;;;5031553;28;20237;-77
2023/04/25 07:45:11;;;;;;;6.77;5.43;;;;;;;;;;5024080;28;20189;-77
2023/04/25 07:47:38;;;;;;;7.13;5.10;;;;;;;;;;5012710;28;20196;-77
2023/04/25 07:50:03;;;;;;;4.87;4.37;;;;;;;;;;5020565;28;20186;-77
2023/04/25 07:52:28;;;;;;;3.93;3.53;;;;;;;;;;5013269;28;20224;-77
2023/04/25 07:54:54;;;;;;;5.00;3.63;;;;;;;;;;5023706;28;20178;-77
2023/04/25 07:57:19;;;;;;;8.47;6.27;;;;;;;;;;5030541;28;20172;-77
2023/04/25 07:59:45;;;;;;;4.27;3.53;;;;;;;;;;5017970;28;20213;-77
2023/04/25 08:02:10;;;;;;;5.10;4.10;;;;;;;;;;5032705;28;20197;-77
2023/04/25 08:04:35;;;;;;;4.07;3.67;;;;;;;;;;5019582;28;20221;-77
2023/04/25 08:07:00;;;;;;;3.70;3.40;;;;;;;;;;5033126;28;20213;-77
2023/04/25 08:09:26;;;;;;;9.10;7.73;;;;;;;;;;5015760;28;20184;-75
2023/04/25 08:11:51;;;;;;;18.10;12.00;;;;;;;;;;5010573;28;20190;-75
2023/04/25 08:14:16;;;;;;;10.93;9.43;;;;;;;;;;5016414;28;20191;-76
2023/04/25 08:16:42;;;;;;;6.50;5.67;;;;;;;;;;5032095;28;20202;-77
2023/04/25 08:19:07;;;;;;;6.13;5.07;;;;;;;;;;5007091;28;20325;-77
2023/04/25 08:21:33;;;;;;;3.27;2.97;;;;;;;;;;5013606;28;20179;-77
2023/04/25 08:23:58;;;;;;;3.53;3.23;;;;;;;;;;5016628;28;20183;-77
2023/04/25 08:26:24;;;;;;;3.53;3.20;;;;;;;;;;5025667;28;20175;-77
2023/04/25 08:28:49;;;;;;;2.70;2.50;;;;;;;;;;5006764;28;20186;-77
2023/04/25 08:31:15;;;;;;;2.90;2.00;;;;;;;;;;5012273;28;20178;-77
2023/04/25 08:33:40;;;;;;;2.17;1.97;;;;;;;;;;5020445;28;20175;-77
2023/04/25 08:36:05;;;;;;;2.10;1.90;;;;;;;;;;5027656;28;20181;-77
2023/04/25 08:38:31;;;;;;;2.00;1.80;;;;;;;;;;5029130;28;20198;-77
2023/04/25 08:40:56;;;;;;;2.00;1.80;;;;;;;;;;5027136;28;20191;-77
2023/04/25 08:43:23;;;;;;;1.70;1.60;;;;;;;;;;5013300;28;20201;-77
2023/04/25 08:45:48;;;;;;;1.83;1.70;;;;;;;;;;5007880;28;20198;-77
2023/04/25 08:48:15;;;;;;;3.47;3.07;;;;;;;;;;5014215;28;20182;-77
2023/04/25 08:50:50;;;;;;;1.83;1.73;;;;;;;;;;5026894;28;20241;-74
2023/04/25 08:53:19;;;;;;;1.40;1.30;;;;;;;;;;5027068;28;20190;-75
2023/04/25 08:55:45;;;;;;;1.67;1.57;;;;;;;;;;5024215;28;20218;-75
2023/04/25 08:58:11;;;;;;;1.40;1.30;;;;;;;;;;5012669;28;20219;-75
2023/04/25 09:00:36;;;;;;;1.87;1.73;;;;;;;;;;5013135;28;20256;-75
2023/04/25 09:03:02;;;;;;;2.13;1.70;;;;;;;;;;5022881;28;20200;-75
2023/04/25 09:05:28;;;;;;;1.47;1.37;;;;;;;;;;5006253;28;20245;-75
2023/04/25 09:07:53;;;;;;;2.10;1.70;;;;;;;;;;5009970;28;20218;-75
2023/04/25 09:10:19;;;;;;;1.90;1.60;;;;;;;;;;5010789;28;20186;-75
2023/04/25 09:12:44;;;;;;;1.30;1.20;;;;;;;;;;5020670;28;20191;-75
2023/04/25 09:15:11;;;;;;;3.43;2.07;;;;;;;;;;5021377;28;20181;-75
2023/04/25 09:17:40;;;;;;;2.33;1.77;;;;;;;;;;5016145;28;20175;-75
2023/04/25 09:20:09;;;;;;;6.30;3.83;;;;;;;;;;4996774;28;20234;-75
2023/04/25 09:22:34;;;;;;;2.47;2.27;;;;;;;;;;5006830;28;20171;-75
2023/04/25 09:25:02;;;;;;;5.20;4.30;;;;;;;;;;4988315;28;20220;-74
2023/04/25 09:27:27;;;;;;;3.80;3.37;;;;;;;;;;4999695;28;20176;-75
2023/04/25 09:29:57;;;;;;;4.97;4.20;;;;;;;;;;4998403;28;20207;-75
2023/04/25 09:32:23;;;;;;;3.57;2.87;;;;;;;;;;4997241;28;20213;-74
2023/04/25 09:34:49;;;;;;;4.97;4.57;;;;;;;;;;5015689;28;20214;-75
2023/04/25 09:37:22;;;;;;;2.30;2.10;;;;;;;;;;5011501;28;20183;-74
2023/04/25 09:39:48;;;;;;;2.50;2.30;;;;;;;;;;5004033;28;20180;-75
2023/04/25 09:42:13;;;;;;;2.37;2.17;;;;;;;;;;5003390;28;20175;-75
2023/04/25 09:44:42;;;;;;;2.27;2.07;;;;;;;;;;5012388;28;20210;-74
2023/04/25 09:47:09;;;;;;;1.60;1.50;;;;;;;;;;5004633;28;20181;-74
2023/04/25 09:49:38;;;;;;;1.50;1.40;;;;;;;;;;5011899;28;20200;-75
2023/04/25 09:52:03;;;;;;;1.80;1.70;;;;;;;;;;5008912;28;20186;-74
2023/04/25 09:54:28;;;;;;;3.07;2.87;;;;;;;;;;4993428;28;20178;-74
2023/04/25 09:56:54;;;;;;;1.70;1.60;;;;;;;;;;5008127;28;20208;-75
2023/04/25 09:59:24;;;;;;;1.07;1.07;;;;;;;;;;5014161;28;20189;-75
2023/04/25 10:01:50;;;;;;;1.90;1.80;;;;;;;;;;4992464;28;20221;-74
2023/04/25 10:04:19;;;;;;;2.30;2.10;;;;;;;;;;5015125;28;20208;-74
2023/04/25 10:06:46;;;;;;;1.00;1.00;;;;;;;;;;4997722;28;20268;-75
2023/04/25 10:09:12;;;;;;;0.60;0.60;;;;;;;;;;5004539;28;20173;-74
2023/04/25 10:11:38;;;;;;;1.47;0.90;;;;;;;;;;4991457;28;20201;-74
2023/04/25 10:14:04;;;;;;;1.20;1.10;;;;;;;;;;4990909;28;20174;-74
2023/04/25 10:16:30;;;;;;;0.90;0.90;;;;;;;;;;5000938;28;20179;-75
2023/04/25 10:18:55;;;;;;;0.70;0.70;;;;;;;;;;5004166;28;20180;-75
2023/04/25 10:21:21;;;;;;;0.40;0.40;;;;;;;;;;4999635;28;20175;-74
2023/04/25 10:23:46;;;;;;;1.20;1.10;;;;;;;;;;5011020;28;20185;-74
2023/04/25 10:26:13;;;;;;;1.53;0.73;;;;;;;;;;4991974;28;20222;-74
2023/04/25 10:28:58;;;;;;;0.70;0.70;;;;;;;;;;5000615;28;20184;-74
2023/04/25 10:31:23;;;;;;;0.60;0.60;;;;;;;;;;5015802;28;20194;-75
2023/04/25 10:33:49;;;;;;;1.53;0.90;;;;;;;;;;4996056;28;20188;-75
2023/04/25 10:36:17;;;;;;;1.20;1.10;;;;;;;;;;4983778;28;20177;-75
2023/04/25 10:38:43;;;;;;;1.30;1.20;;;;;;;;;;5008263;28;20189;-75
2023/04/25 10:41:09;;;;;;;1.00;1.00;;;;;;;;;;5010304;28;20185;-75
2023/04/25 10:43:37;;;;;;;1.70;1.60;;;;;;;;;;4987781;28;20193;-75
2023/04/25 10:46:03;;;;;;;1.70;1.60;;;;;;;;;;4995676;28;20209;-75
2023/04/25 10:48:29;;;;;;;1.60;1.50;;;;;;;;;;5008027;28;20184;-75
2023/04/25 10:51:10;;;;;;;2.07;1.90;;;;;;;;;;4996194;28;20180;-75
2023/04/25 10:53:36;;;;;;;1.90;1.80;;;;;;;;;;4995325;28;20187;-75
2023/04/25 10:56:09;;;;;;;1.40;1.30;;;;;;;;;;4997343;28;20198;-75
2023/04/25 10:58:34;;;;;;;1.37;1.30;;;;;;;;;;5006720;28;20265;-75
2023/04/25 11:01:00;;;;;;;1.43;1.33;;;;;;;;;;5012065;28;20278;-75
2023/04/25 11:03:26;;;;;;;0.97;0.93;;;;;;;;;;4998223;28;20237;-75
2023/04/25 11:05:52;;;;;;;2.40;2.20;;;;;;;;;;5016488;28;20238;-75
2023/04/25 11:08:22;;;;;;;3.03;2.57;;;;;;;;;;5002703;28;20176;-75
2023/04/25 11:10:48;;;;;;;4.23;3.13;;;;;;;;;;5026845;28;20214;-75
2023/04/25 11:13:14;;;;;;;4.30;3.57;;;;;;;;;;5019024;28;20174;-75
2023/04/25 11:15:39;;;;;;;2.47;1.87;;;;;;;;;;5001907;28;20187;-74
2023/04/25 11:18:05;;;;;;;3.87;3.47;;;;;;;;;;5001421;28;20186;-75
2023/04/25 11:20:30;;;;;;;5.70;3.40;;;;;;;;;;4993691;28;20253;-75
2023/04/25 11:22:57;;;;;;;5.07;4.60;;;;;;;;;;4993903;28;20188;-74
2023/04/25 11:25:24;;;;;;;4.00;3.60;;;;;;;;;;5017376;28;20223;-75
2023/04/25 11:27:51;;;;;;;4.60;4.13;;;;;;;;;;5009738;28;20182;-75
2023/04/25 11:30:16;;;;;;;4.93;4.43;;;;;;;;;;5013119;28;20201;-75
2023/04/25 11:32:42;;;;;;;4.37;3.83;;;;;;;;;;5009711;28;20206;-75
2023/04/25 11:35:08;;;;;;;4.53;4.13;;;;;;;;;;4996442;28;20183;-75
2023/04/25 11:37:34;;;;;;;6.07;4.10;;;;;;;;;;4995331;28;20186;-75
2023/04/25 11:39:59;;;;;;;3.77;3.37;;;;;;;;;;4996166;28;20191;-75
2023/04/25 11:42:24;;;;;;;2.80;2.37;;;;;;;;;;4995263;28;20184;-75
2023/04/25 11:44:50;;;;;;;2.40;2.20;;;;;;;;;;5003934;28;20206;-75
2023/04/25 11:47:16;;;;;;;2.30;2.10;;;;;;;;;;5011328;28;20190;-75
2023/04/25 11:49:41;;;;;;;2.50;2.30;;;;;;;;;;5005237;28;20186;-75
2023/04/25 11:52:07;;;;;;;2.33;2.13;;;;;;;;;;5000103;28;20207;-74
2023/04/25 11:54:34;;;;;;;2.90;2.20;;;;;;;;;;5008064;28;20184;-75
2023/04/25 11:57:01;;;;;;;2.27;2.00;;;;;;;;;;4993391;28;20183;-75
2023/04/25 11:59:26;;;;;;;1.90;1.80;;;;;;;;;;5015901;28;20208;-75
2023/04/25 12:01:51;;;;;;;1.53;1.43;;;;;;;;;;4991775;28;20203;-74
2023/04/25 12:04:18;;;;;;;2.00;1.90;;;;;;;;;;5012041;28;20214;-75
2023/04/25 12:06:46;;;;;;;2.90;1.90;;;;;;;;;;4996632;28;20187;-74
2023/04/25 12:09:13;;;;;;;2.10;1.90;;;;;;;;;;4993580;28;20178;-75
2023/04/25 12:11:42;;;;;;;2.00;1.70;;;;;;;;;;5007688;28;20175;-75
2023/04/25 12:14:07;;;;;;;2.43;2.23;;;;;;;;;;4995593;28;20194;-75
2023/04/25 12:16:43;;;;;;;2.70;2.50;;;;;;;;;;4994437;28;20179;-75
2023/04/25 12:19:08;;;;;;;2.77;2.57;;;;;;;;;;4993840;28;20225;-75
2023/04/25 12:21:34;;;;;;;2.27;2.07;;;;;;;;;;5031665;28;20170;-75
2023/04/25 12:24:14;;;;;;;3.10;2.40;;;;;;;;;;5032524;28;20235;-75
2023/04/25 12:26:50;;;;;;;3.30;3.00;;;;;;;;;;5031411;28;20181;-75
2023/04/25 12:29:19;;;;;;;4.80;4.30;;;;;;;;;;5019031;28;20182;-77
2023/04/25 12:31:45;;;;;;;5.30;4.57;;;;;;;;;;5014732;28;20194;-77
2023/04/25 12:34:10;;;;;;;4.23;3.50;;;;;;;;;;5013961;28;20312;-77
2023/04/25 12:36:35;;;;;;;5.83;4.40;;;;;;;;;;5013235;28;20274;-77
2023/04/25 12:39:04;;;;;;;7.27;6.03;;;;;;;;;;5028060;28;20179;-77
2023/04/25 12:41:29;;;;;;;6.57;5.27;;;;;;;;;;5018574;28;20171;-77
2023/04/25 12:43:54;;;;;;;6.20;5.43;;;;;;;;;;5007286;28;20321;-77
2023/04/25 12:46:20;;;;;;;6.93;5.40;;;;;;;;;;5030750;28;20210;-77
2023/04/25 12:48:45;;;;;;;5.63;4.77;;;;;;;;;;5023295;28;20261;-75
2023/04/25 12:51:10;;;;;;;5.73;5.13;;;;;;;;;;5011850;28;20191;-75
2023/04/25 12:53:37;;;;;;;5.67;5.10;;;;;;;;;;5005868;28;20175;-75
2023/04/25 12:56:02;;;;;;;4.13;3.60;;;;;;;;;;5020475;28;20181;-75
2023/04/25 12:58:28;;;;;;;6.23;4.90;;;;;;;;;;5012631;28;20180;-75
2023/04/25 13:00:53;;;;;;;7.73;5.23;;;;;;;;;;5032209;28;20277;-75
2023/04/25 13:03:18;;;;;;;6.20;4.80;;;;;;;;;;5022895;28;20235;-75
2023/04/25 13:05:43;;;;;;;5.23;4.70;;;;;;;;;;5034649;28;20203;-75
2023/04/25 13:08:09;;;;;;;4.37;3.47;;;;;;;;;;5015089;28;20175;-75
2023/04/25 13:10:35;;;;;;;4.77;3.90;;;;;;;;;;5004649;28;20226;-75
2023/04/25 13:13:01;;;;;;;3.93;3.50;;;;;;;;;;5031647;28;20209;-75
2023/04/25 13:15:26;;;;;;;5.20;3.60;;;;;;;;;;5016937;28;20199;-75
2023/04/25 13:17:51;;;;;;;2.63;2.43;;;;;;;;;;5019928;28;20214;-75
2023/04/25 13:20:18;;;;;;;3.73;2.60;;;;;;;;;;5013001;28;20423;-75
2023/04/25 13:22:45;;;;;;;4.17;3.77;;;;;;;;;;5030071;28;20217;-75
2023/04/25 13:25:10;;;;;;;3.20;2.90;;;;;;;;;;5013799;28;20266;-75
2023/04/25 13:27:38;;;;;;;3.60;3.30;;;;;;;;;;5006626;28;20270;-75
2023/04/25 13:30:07;;;;;;;3.67;3.37;;;;;;;;;;5013760;28;20186;-75
2023/04/25 13:32:33;;;;;;;3.60;3.30;;;;;;;;;;5031345;28;20178;-75
2023/04/25 13:34:58;;;;;;;3.53;3.23;;;;;;;;;;5012345;28;20281;-75
2023/04/25 13:37:24;;;;;;;3.77;3.37;;;;;;;;;;5014759;28;20269;-75
2023/04/25 13:39:49;;;;;;;3.83;3.53;;;;;;;;;;5012769;28;20210;-75
2023/04/25 13:42:15;;;;;;;3.40;3.10;;;;;;;;;;5026100;28;20220;-75
2023/04/25 13:44:41;;;;;;;4.87;4.00;;;;;;;;;;5035996;28;20256;-75
2023/04/25 13:47:06;;;;;;;4.20;3.80;;;;;;;;;;5015197;28;20264;-75
2023/04/25 13:49:31;;;;;;;4.00;3.60;;;;;;;;;;5012708;28;20176;-75
2023/04/25 13:51:56;;;;;;;4.10;3.70;;;;;;;;;;5010463;28;20212;-75
2023/04/25 13:54:22;;;;;;;4.80;4.10;;;;;;;;;;5034159;28;20249;-75
2023/04/25 13:56:48;;;;;;;3.83;3.53;;;;;;;;;;5018055;28;20179;-75
2023/04/25 13:59:13;;;;;;;3.77;3.37;;;;;;;;;;5019276;28;20186;-75
2023/04/25 14:01:39;;;;;;;3.87;3.43;;;;;;;;;;5015150;28;20228;-75
2023/04/25 14:04:04;;;;;;;4.03;3.60;;;;;;;;;;5011944;28;20175;-75
2023/04/25 14:06:31;;;;;;;4.20;3.80;;;;;;;;;;5021042;28;20177;-75
2023/04/25 14:08:56;;;;;;;4.13;3.40;;;;;;;;;;5030934;28;20178;-75
2023/04/25 14:11:21;;;;;;;3.50;3.20;;;;;;;;;;5014575;28;20176;-76
2023/04/25 14:13:48;;;;;;;3.50;3.20;;;;;;;;;;5013591;28;20209;-75
2023/04/25 14:16:14;;;;;;;3.70;3.40;;;;;;;;;;5034062;28;20195;-76
2023/04/25 14:18:40;;;;;;;3.53;3.00;;;;;;;;;;5016304;28;20204;-77
2023/04/25 14:21:05;;;;;;;4.13;3.30;;;;;;;;;;5016407;28;20219;-80
2023/04/25 14:23:30;;;;;;;3.50;3.20;;;;;;;;;;5027369;28;20185;-80
2023/04/25 14:25:55;;;;;;;3.70;3.40;;;;;;;;;;5008597;28;20221;-80
2023/04/25 14:28:21;;;;;;;3.50;3.20;;;;;;;;;;5016276;28;20194;-80
2023/04/25 14:30:46;;;;;;;3.47;3.13;;;;;;;;;;5024854;28;20181;-81
2023/04/25 14:33:11;;;;;;;3.63;3.33;;;;;;;;;;5029556;28;20170;-80
2023/04/25 14:35:36;;;;;;;4.67;3.50;;;;;;;;;;5008794;28;20194;-80